Time;durP1;ratioP1;P1;durP2;ratioP2;P2;SDS_P1;SDS_P2;PMS_P1;PMS_P2;Temp;Humidity;BMP_temperature;BMP_pressure;BME280_temperature;BME280_humidity;BME280_pressure;Samples;Min_cycle;Max_cycle;Signal;HPM_P1;HPM_P2
2022/02/08 00:00:02;;;;;;;1.13;0.30;;;20.90;55.90;;;;;;4971800;28;20121;-67
2022/02/08 00:02:29;;;;;;;0.30;0.30;;;20.80;55.90;;;;;;4971917;28;20023;-67
2022/02/08 00:04:56;;;;;;;0.95;0.30;;;20.80;55.90;;;;;;4955539;28;20035;-67
2022/02/08 00:07:22;;;;;;;3.13;0.30;;;20.80;55.90;;;;;;4968170;28;20120;-67
2022/02/08 00:09:47;;;;;;;0.63;0.20;;;20.80;55.90;;;;;;4952636;29;20043;-67
2022/02/08 00:12:14;;;;;;;1.17;0.30;;;20.80;55.90;;;;;;4952147;29;20047;-67
2022/02/08 00:14:39;;;;;;;0.50;0.30;;;20.70;55.80;;;;;;4952099;29;20051;-67
2022/02/08 00:17:05;;;;;;;0.50;0.30;;;20.80;55.90;;;;;;4952278;29;20023;-67
2022/02/08 00:19:32;;;;;;;1.85;0.40;;;20.70;55.80;;;;;;4936249;29;20524;-67
2022/02/08 00:21:57;;;;;;;0.75;0.25;;;20.70;55.80;;;;;;4952443;29;20135;-67
2022/02/08 00:24:23;;;;;;;1.02;0.30;;;20.70;55.80;;;;;;4952120;29;20118;-67
2022/02/08 00:26:48;;;;;;;1.45;0.32;;;20.70;55.80;;;;;;4974060;28;20044;-67
2022/02/08 00:29:14;;;;;;;1.65;0.45;;;20.70;55.90;;;;;;5012676;28;20026;-67
2022/02/08 00:31:40;;;;;;;0.25;0.20;;;20.70;56.00;;;;;;5012270;28;20102;-67
2022/02/08 00:34:05;;;;;;;0.98;0.20;;;20.70;56.00;;;;;;4995080;28;20025;-67
2022/02/08 00:36:31;;;;;;;0.95;0.32;;;20.70;56.00;;;;;;5012487;28;20037;-67
2022/02/08 00:38:56;;;;;;;1.00;0.40;;;20.60;56.00;;;;;;5012449;28;20033;-67
2022/02/08 00:41:24;;;;;;;1.67;1.27;;;20.60;56.10;;;;;;4995115;28;20034;-67
2022/02/08 00:44:10;;;;;;;1.05;0.50;;;20.50;56.00;;;;;;5012704;28;20050;-67
2022/02/08 00:46:43;;;;;;;0.88;0.40;;;20.50;56.10;;;;;;5012068;28;20026;-67
2022/02/08 00:49:10;;;;;;;;;;;20.50;56.20;;;;;;5012794;28;20029;-67
2022/02/08 00:51:57;;;;;;;0.22;0.20;;;20.50;56.30;;;;;;4997368;28;19905;-67
2022/02/08 00:54:22;;;;;;;0.73;0.40;;;20.40;56.40;;;;;;5032107;28;20025;-67
2022/02/08 00:56:48;;;;;;;0.73;0.30;;;20.40;56.30;;;;;;5032097;28;20025;-67
2022/02/08 00:59:14;;;;;;;0.47;0.40;;;20.40;56.30;;;;;;5032072;28;20037;-67
2022/02/08 01:01:40;;;;;;;0.98;0.28;;;20.40;56.30;;;;;;5013902;28;20380;-67
2022/02/08 01:04:06;;;;;;;1.25;0.40;;;20.40;56.40;;;;;;5014368;28;20030;-67
2022/02/08 01:06:32;;;;;;;0.43;0.30;;;20.40;56.40;;;;;;5016617;28;20022;-67
2022/02/08 01:09:10;;;;;;;0.75;0.40;;;20.30;56.30;;;;;;5001608;28;20026;-67
2022/02/08 01:11:36;;;;;;;0.35;0.20;;;20.40;56.40;;;;;;5000200;28;20022;-67
2022/02/08 01:14:02;;;;;;;0.63;0.30;;;20.30;56.30;;;;;;4998639;28;20030;-67
2022/02/08 01:16:29;;;;;;;0.40;0.40;;;20.30;56.40;;;;;;4998051;28;20483;-67
2022/02/08 01:18:56;;;;;;;1.08;0.40;;;20.30;56.40;;;;;;5016064;28;20117;-67
2022/02/08 01:21:23;;;;;;;0.30;0.30;;;20.30;56.40;;;;;;5015849;28;20080;-67
2022/02/08 01:23:48;;;;;;;1.30;0.25;;;20.30;56.40;;;;;;4998699;28;20072;-67
2022/02/08 01:26:16;;;;;;;0.45;0.30;;;20.30;56.50;;;;;;5015474;28;20430;-67
2022/02/08 01:29:36;;;;;;;0.10;0.10;;;20.30;56.50;;;;;;5015745;28;20017;-67
2022/02/08 01:31:36;;;;;;;0.38;0.30;;;20.20;56.40;;;;;;5004457;28;20030;-67
2022/02/08 01:49:34;;;;;;;0.40;0.30;;;20.10;56.60;;;;;;5015196;28;20033;-67
2022/02/08 01:52:00;;;;;;;0.25;0.20;;;20.10;56.70;;;;;;5020610;28;20498;-67
2022/02/08 01:54:26;;;;;;;0.70;0.40;;;20.10;56.70;;;;;;5034940;28;20021;-67
2022/02/08 01:56:52;;;;;;;1.85;0.20;;;20.10;56.70;;;;;;5034908;28;20018;-67
2022/02/08 01:59:17;;;;;;;0.20;0.20;;;20.10;56.70;;;;;;5017055;28;20028;-67
2022/02/08 02:01:43;;;;;;;0.20;0.17;;;20.00;56.70;;;;;;5034922;28;20036;-67
2022/02/08 02:04:09;;;;;;;0.43;0.22;;;20.10;56.70;;;;;;5017174;28;20396;-67
2022/02/08 02:06:35;;;;;;;0.52;0.30;;;20.10;56.80;;;;;;5016996;28;20022;-67
2022/02/08 02:09:01;;;;;;;1.05;0.50;;;20.00;56.70;;;;;;5017115;28;20033;-67
2022/02/08 02:11:26;;;;;;;0.15;0.15;;;20.00;56.70;;;;;;5016923;28;20025;-67
2022/02/08 02:13:52;;;;;;;0.35;0.13;;;20.00;56.80;;;;;;5034524;28;20022;-67
2022/02/08 02:16:29;;;;;;;0.30;0.20;;;20.00;56.80;;;;;;5033807;28;20045;-67
2022/02/08 02:18:54;;;;;;;0.55;0.20;;;20.00;56.80;;;;;;5003859;28;20025;-67
2022/02/08 02:21:20;;;;;;;1.02;0.50;;;20.00;56.90;;;;;;5034460;28;20037;-67
2022/02/08 02:23:47;;;;;;;0.45;0.20;;;20.00;56.90;;;;;;5034564;28;20030;-67
2022/02/08 02:26:13;;;;;;;0.95;0.32;;;20.00;56.90;;;;;;5034313;28;20080;-67
2022/02/08 02:28:38;;;;;;;0.20;0.20;;;20.00;56.90;;;;;;5034026;28;20053;-67
2022/02/08 02:31:04;;;;;;;0.40;0.22;;;20.00;57.00;;;;;;5034534;28;20024;-67
2022/02/08 02:33:29;;;;;;;1.95;0.38;;;19.90;56.90;;;;;;5034273;28;20029;-67
2022/02/08 02:35:56;;;;;;;0.20;0.10;;;19.90;56.90;;;;;;5034412;28;20449;-67
2022/02/08 02:38:24;;;;;;;0.22;0.20;;;19.90;57.00;;;;;;5016656;28;20060;-67
2022/02/08 02:40:50;;;;;;;1.05;0.40;;;19.90;57.00;;;;;;5034301;28;20025;-67
2022/02/08 02:43:16;;;;;;;0.52;0.30;;;19.90;57.00;;;;;;5016415;28;20029;-67
2022/02/08 02:45:41;;;;;;;0.60;0.20;;;19.90;57.00;;;;;;5016431;28;20101;-67
2022/02/08 02:48:07;;;;;;;0.25;0.17;;;19.90;57.00;;;;;;5034244;28;20045;-67
2022/02/08 02:50:33;;;;;;;0.17;0.17;;;19.90;57.10;;;;;;5016413;28;20022;-67
2022/02/08 02:52:59;;;;;;;0.20;0.20;;;19.80;57.10;;;;;;5015978;28;20109;-67
2022/02/08 02:55:27;;;;;;;0.50;0.30;;;19.90;57.10;;;;;;5033796;28;20017;-67
2022/02/08 02:57:54;;;;;;;0.30;0.30;;;19.80;57.20;;;;;;5016201;28;20494;-67
2022/02/08 03:01:09;;;;;;;0.90;0.20;;;19.80;57.10;;;;;;5033715;28;20163;-67
2022/02/08 03:17:34;;;;;;;0.15;0.15;;;19.70;57.20;;;;;;5018439;28;20117;-67
2022/02/08 03:19:21;;;;;;;0.20;0.20;;;19.70;57.40;;;;;;5018450;28;20032;-67
2022/02/08 03:21:47;;;;;;;0.85;0.20;;;19.70;57.40;;;;;;5033638;28;20026;-67
2022/02/08 03:24:12;;;;;;;0.30;0.20;;;19.70;57.40;;;;;;5033305;28;20024;-67
2022/02/08 03:26:38;;;;;;;0.30;0.10;;;19.70;57.40;;;;;;5032877;28;20030;-67
2022/02/08 03:29:04;;;;;;;0.40;0.30;;;19.70;57.40;;;;;;5032521;28;20565;-67
2022/02/08 03:31:30;;;;;;;2.70;0.30;;;19.70;57.40;;;;;;5015391;28;20032;-67
2022/02/08 03:33:56;;;;;;;0.10;0.10;;;19.70;57.50;;;;;;5015736;28;20022;-67
2022/02/08 03:36:21;;;;;;;0.43;0.20;;;19.70;57.50;;;;;;5033263;28;20421;-67
2022/02/08 03:38:59;;;;;;;0.88;0.30;;;19.70;57.50;;;;;;5032845;28;20514;-67
2022/02/08 03:41:24;;;;;;;0.20;0.20;;;19.60;57.50;;;;;;5032590;28;20407;-67
2022/02/08 03:43:50;;;;;;;0.77;0.20;;;19.60;57.50;;;;;;5033029;28;20029;-67
2022/02/08 03:46:18;;;;;;;0.20;0.20;;;19.60;57.50;;;;;;5032741;28;20036;-67
2022/02/08 03:48:44;;;;;;;0.80;0.25;;;19.60;57.50;;;;;;5015531;28;20128;-67
2022/02/08 03:51:12;;;;;;;0.85;0.10;;;19.60;57.50;;;;;;5033008;28;20101;-67
2022/02/08 03:53:41;;;;;;;0.50;0.22;;;19.60;57.60;;;;;;5015328;28;20021;-67
2022/02/08 03:56:07;;;;;;;0.20;0.15;;;19.60;57.60;;;;;;5015338;28;20025;-67
2022/02/08 03:58:33;;;;;;;0.50;0.28;;;19.60;57.60;;;;;;5014994;28;20446;-67
2022/02/08 04:03:43;;;;;;;0.17;0.17;;;19.60;57.60;;;;;;5016727;28;20029;-67
2022/02/08 04:06:08;;;;;;;0.17;0.17;;;19.60;57.70;;;;;;5032638;28;20072;-67
2022/02/08 04:08:35;;;;;;;0.20;0.20;;;19.60;58.70;;;;;;5014858;28;20469;-67
2022/02/08 04:11:01;;;;;;;0.20;0.10;;;19.60;57.70;;;;;;5032341;28;20373;-67
2022/02/08 04:13:39;;;;;;;0.10;0.10;;;19.50;57.70;;;;;;5032465;28;20096;-67
2022/02/08 04:16:39;;;;;;;0.20;0.20;;;19.50;57.70;;;;;;5001923;28;20068;-67
2022/02/08 04:35:24;;;;;;;0.35;0.30;;;19.50;57.90;;;;;;5032357;28;20456;-67
2022/02/08 04:40:41;;;;;;;0.60;0.20;;;19.40;57.90;;;;;;5034005;28;20466;-67
2022/02/08 04:48:14;;;;;;;0.65;0.30;;;19.40;58.00;;;;;;5036061;28;20022;-67
2022/02/08 04:50:41;;;;;;;0.28;0.20;;;19.40;57.90;;;;;;5020043;28;20108;-67
2022/02/08 04:53:15;;;;;;;1.15;0.15;;;19.40;58.00;;;;;;5014776;28;20507;-67
2022/02/08 04:55:51;;;;;;;0.68;0.20;;;19.40;58.00;;;;;;5015302;28;20109;-67
2022/02/08 05:01:00;;;;;;;0.45;0.28;;;19.40;58.00;;;;;;5016436;28;20443;-67
2022/02/08 05:48:44;;;;;;;0.20;0.20;;;19.20;58.30;;;;;;5017501;28;20026;-67
2022/02/08 05:51:17;;;;;;;0.10;0.10;;;19.20;58.30;;;;;;5017282;28;20514;-67
2022/02/08 05:53:45;;;;;;;;;;;19.20;58.30;;;;;;5035347;28;20068;-67
2022/02/08 05:56:10;;;;;;;0.35;0.20;;;19.10;58.40;;;;;;5017883;28;19905;-67
2022/02/08 05:58:36;;;;;;;0.13;0.10;;;19.10;58.50;;;;;;5017386;28;20029;-67
2022/02/08 06:01:02;;;;;;;0.10;0.10;;;19.10;58.40;;;;;;5034843;28;20026;-67
2022/02/08 06:03:28;;;;;;;0.10;0.10;;;19.10;58.40;;;;;;5017395;28;20071;-67
2022/02/08 06:05:54;;;;;;;0.32;0.10;;;19.10;58.40;;;;;;5016773;28;20037;-67
2022/02/08 06:08:19;;;;;;;0.75;0.20;;;19.10;58.30;;;;;;5034849;28;20013;-67
2022/02/08 06:10:49;;;;;;;0.32;0.10;;;19.10;58.40;;;;;;5034680;28;20022;-67
2022/02/08 06:13:16;;;;;;;0.10;0.10;;;19.10;58.40;;;;;;5034664;28;20372;-67
2022/02/08 06:15:44;;;;;;;0.93;0.10;;;19.10;58.40;;;;;;5016740;28;20140;-67
2022/02/08 06:18:10;;;;;;;0.60;0.20;;;19.10;58.50;;;;;;5034735;28;20101;-67
2022/02/08 06:20:35;;;;;;;0.13;0.10;;;19.10;58.40;;;;;;5034198;28;20120;-67
2022/02/08 06:23:01;;;;;;;0.30;0.20;;;19.10;58.40;;;;;;5034557;28;20061;-67
2022/02/08 06:25:27;;;;;;;0.10;0.05;;;19.10;58.40;;;;;;5034438;28;20025;-67
2022/02/08 06:27:52;;;;;;;0.22;0.10;;;19.10;58.40;;;;;;5034340;28;20418;-67
2022/02/08 06:30:21;;;;;;;0.10;0.10;;;19.00;58.40;;;;;;5012736;28;20452;-67
2022/02/08 06:32:46;;;;;;;0.30;0.13;;;19.00;58.40;;;;;;5012775;28;20422;-67
2022/02/08 06:35:18;;;;;;;0.98;0.20;;;19.00;58.40;;;;;;5031835;28;20087;-67
2022/02/08 06:37:43;;;;;;;0.10;0.10;;;19.00;58.40;;;;;;5030444;28;20018;-67
2022/02/08 06:40:10;;;;;;;0.20;0.20;;;19.00;58.40;;;;;;5030145;28;20164;-67
2022/02/08 06:42:36;;;;;;;0.20;0.10;;;19.00;58.40;;;;;;5032145;28;20017;-67
2022/02/08 06:45:03;;;;;;;0.35;0.20;;;19.00;58.50;;;;;;5030958;28;20025;-67
2022/02/08 06:47:31;;;;;;;1.10;0.10;;;19.00;58.50;;;;;;4998000;28;20026;-67
2022/02/08 06:49:57;;;;;;;0.20;0.20;;;19.00;58.50;;;;;;5014917;28;20025;-67
2022/02/08 06:52:22;;;;;;;0.10;0.10;;;19.00;58.50;;;;;;5033455;28;20067;-67
2022/02/08 06:54:48;;;;;;;1.10;0.50;;;19.00;58.60;;;;;;5033633;28;20021;-67
2022/02/08 06:57:14;;;;;;;0.15;0.10;;;19.00;58.60;;;;;;5033730;28;20187;-67
2022/02/08 06:59:48;;;;;;;0.30;0.20;;;19.00;58.60;;;;;;5016087;28;20506;-67
2022/02/08 07:02:14;;;;;;;0.10;0.10;;;19.00;58.60;;;;;;5018167;28;20067;-67
2022/02/08 07:04:39;;;;;;;0.20;0.20;;;19.00;58.70;;;;;;5033048;28;20033;-67
2022/02/08 07:07:05;;;;;;;0.50;0.13;;;19.00;58.70;;;;;;5033299;28;20032;-67
2022/02/08 07:09:30;;;;;;;0.30;0.20;;;19.00;58.60;;;;;;5012217;28;20053;-67
2022/02/08 07:11:58;;;;;;;0.93;0.20;;;19.00;58.60;;;;;;5031621;28;20028;-67
2022/02/08 07:14:28;;;;;;;0.10;0.10;;;18.90;58.60;;;;;;5015973;28;20025;-67
2022/02/08 07:16:54;;;;;;;1.20;0.10;;;18.90;58.60;;;;;;5016598;28;20081;-67
2022/02/08 07:19:20;;;;;;;0.10;0.10;;;18.90;58.60;;;;;;5033676;28;20399;-67
2022/02/08 07:21:45;;;;;;;0.45;0.20;;;18.90;58.60;;;;;;5033646;28;20439;-67
2022/02/08 07:24:11;;;;;;;0.10;0.10;;;18.90;58.60;;;;;;5033621;28;20029;-67
2022/02/08 07:26:37;;;;;;;0.10;0.10;;;18.90;58.60;;;;;;5033650;28;20028;-67
2022/02/08 07:29:03;;;;;;;0.50;0.10;;;18.90;58.60;;;;;;5033725;28;20022;-67
2022/02/08 07:31:37;;;;;;;0.10;0.10;;;18.80;58.50;;;;;;5015752;28;20522;-67
2022/02/08 07:34:16;;;;;;;0.80;0.10;;;18.80;58.40;;;;;;5016431;28;20052;-67
2022/02/08 07:39:37;;;;;;;0.55;0.17;;;18.80;58.50;;;;;;5033839;28;20037;-67
2022/02/08 07:42:03;;;;;;;0.60;0.25;;;18.80;58.50;;;;;;5032733;28;20060;-67
2022/02/08 07:44:29;;;;;;;0.22;0.20;;;18.80;58.50;;;;;;5014742;28;20034;-67
2022/02/08 07:46:54;;;;;;;0.88;0.20;;;18.80;58.50;;;;;;5031401;28;20030;-67
2022/02/08 07:49:20;;;;;;;1.13;0.30;;;18.70;58.40;;;;;;5015340;28;20030;-67
2022/02/08 07:51:45;;;;;;;0.75;0.32;;;18.70;58.40;;;;;;5032592;28;20074;-67
2022/02/08 07:54:11;;;;;;;3.35;0.40;;;18.70;58.50;;;;;;5032828;28;20032;-67
2022/02/08 07:56:37;;;;;;;2.13;0.63;;;18.70;59.00;;;;;;5032506;28;20373;-67
2022/02/08 07:59:02;;;;;;;3.90;0.75;;;18.70;58.50;;;;;;5032680;28;20060;-67
2022/02/08 08:01:28;;;;;;;2.75;0.77;;;18.70;58.40;;;;;;5032408;28;20483;-67
2022/02/08 08:03:54;;;;;;;3.95;0.80;;;18.70;58.40;;;;;;5015048;28;20502;-67
2022/02/08 08:06:20;;;;;;;2.35;0.60;;;18.70;58.40;;;;;;5007898;28;20030;-67
2022/02/08 08:08:46;;;;;;;0.85;0.50;;;18.70;58.40;;;;;;5027918;28;20021;-67
2022/02/08 08:11:16;;;;;;;1.65;0.70;;;18.70;58.40;;;;;;4998524;28;20411;-67
2022/02/08 08:13:48;;;;;;;1.60;0.60;;;18.70;58.40;;;;;;5012287;28;20021;-67
2022/02/08 08:16:20;;;;;;;3.22;0.75;;;18.70;58.40;;;;;;5010829;28;20118;-67
2022/02/08 08:18:59;;;;;;;2.78;0.80;;;18.60;58.40;;;;;;5011763;28;20029;-67
2022/02/08 08:21:24;;;;;;;2.72;0.95;;;18.60;58.50;;;;;;5012672;28;20075;-67
2022/02/08 08:23:51;;;;;;;3.47;0.57;;;18.60;58.50;;;;;;5011436;28;20030;-67
2022/02/08 08:26:16;;;;;;;1.83;0.70;;;18.60;58.40;;;;;;5011385;28;20439;-67
2022/02/08 08:28:42;;;;;;;4.53;0.88;;;18.60;58.40;;;;;;5011619;28;20018;-67
2022/02/08 08:31:08;;;;;;;3.05;0.50;;;18.60;58.40;;;;;;5012335;28;20488;-67
2022/02/08 08:33:34;;;;;;;2.53;0.70;;;18.60;58.50;;;;;;5011357;28;20456;-67
2022/02/08 08:36:00;;;;;;;3.33;0.70;;;18.60;58.40;;;;;;5012684;28;20022;-67
2022/02/08 08:38:27;;;;;;;1.27;0.68;;;18.50;58.40;;;;;;5012800;28;20083;-67
2022/02/08 08:41:04;;;;;;;1.63;0.52;;;18.50;58.40;;;;;;5014632;28;20052;-67
2022/02/08 08:51:45;;;;;;;2.28;0.60;;;18.50;58.40;;;;;;5031933;28;20118;-67
2022/02/08 08:54:11;;;;;;;2.08;0.82;;;18.50;58.50;;;;;;5031968;28;20021;-67
2022/02/08 08:56:41;;;;;;;2.10;0.68;;;18.50;58.50;;;;;;4998404;28;20025;-67
2022/02/08 08:59:07;;;;;;;3.78;1.02;;;18.50;58.40;;;;;;5031693;28;20032;-67
2022/02/08 09:01:33;;;;;;;1.33;0.60;;;18.50;58.50;;;;;;5014520;28;20472;-67
2022/02/08 09:03:59;;;;;;;3.40;0.90;;;18.40;58.40;;;;;;5014336;28;20120;-67
2022/02/08 09:06:24;;;;;;;1.60;0.55;;;18.40;58.50;;;;;;4997947;28;20033;-67
2022/02/08 09:08:50;;;;;;;0.77;0.50;;;18.40;58.40;;;;;;4998007;28;20095;-67
2022/02/08 09:11:31;;;;;;;1.70;0.70;;;18.40;58.50;;;;;;5032043;28;20024;-67
2022/02/08 09:14:09;;;;;;;1.13;0.52;;;18.40;58.90;;;;;;5023833;28;20022;-67
2022/02/08 09:30:02;;;;;;;2.58;0.70;;;18.40;58.60;;;;;;5015722;28;20033;-67
2022/02/08 09:32:39;;;;;;;0.68;0.40;;;18.30;58.50;;;;;;5015667;28;20018;-67
2022/02/08 09:35:07;;;;;;;3.72;0.60;;;18.30;58.60;;;;;;5015572;28;20411;-67
2022/02/08 09:37:33;;;;;;;0.82;0.43;;;18.30;58.60;;;;;;4998254;28;20026;-67
2022/02/08 09:39:59;;;;;;;1.25;0.63;;;18.30;58.60;;;;;;4998273;28;20023;-67
2022/02/08 09:42:25;;;;;;;0.93;0.60;;;18.30;58.60;;;;;;5015559;28;20025;-67
2022/02/08 09:44:51;;;;;;;0.70;0.50;;;18.30;58.60;;;;;;5015190;28;20490;-67
2022/02/08 09:47:20;;;;;;;0.75;0.40;;;18.30;58.60;;;;;;4997839;28;20040;-67
2022/02/08 09:49:54;;;;;;;0.80;0.40;;;18.30;58.60;;;;;;4998387;28;20014;-67
2022/02/08 09:52:21;;;;;;;0.88;0.52;;;18.30;58.60;;;;;;5006849;28;20076;-67
2022/02/08 09:54:47;;;;;;;0.90;0.40;;;18.30;58.60;;;;;;5017780;28;20057;-67
2022/02/08 09:57:14;;;;;;;0.63;0.30;;;18.30;58.60;;;;;;5034772;28;20056;-67
2022/02/08 09:59:41;;;;;;;0.90;0.73;;;18.30;58.60;;;;;;5017614;28;20395;-67
2022/02/08 10:02:07;;;;;;;1.63;0.40;;;18.30;58.70;;;;;;5034714;28;20040;-67
2022/02/08 10:04:32;;;;;;;0.30;0.30;;;18.30;58.70;;;;;;5017480;28;20025;-67
2022/02/08 10:07:13;;;;;;;1.13;0.43;;;18.30;58.70;;;;;;5034712;28;20025;-67
2022/02/08 10:09:38;;;;;;;0.80;0.32;;;18.30;58.60;;;;;;5017306;28;20044;-67
2022/02/08 10:12:04;;;;;;;0.43;0.20;;;18.30;58.70;;;;;;5016756;28;20491;-67
2022/02/08 10:22:31;;;;;;;1.70;0.40;;;18.30;58.80;;;;;;5034677;28;20036;-67
2022/02/08 10:25:05;;;;;;;0.90;0.38;;;18.30;58.80;;;;;;5016972;28;20025;-67
2022/02/08 10:27:41;;;;;;;1.13;0.60;;;18.20;58.80;;;;;;5017624;28;20068;-67
2022/02/08 10:38:50;;;;;;;1.40;0.52;;;18.20;58.80;;;;;;5018867;28;20033;-67
2022/02/08 10:41:21;;;;;;;2.40;0.50;;;18.20;58.90;;;;;;5017719;28;20113;-67
2022/02/08 10:44:04;;;;;;;0.52;0.30;;;18.20;58.90;;;;;;5016605;28;20033;-67
2022/02/08 10:46:30;;;;;;;0.60;0.45;;;18.20;58.90;;;;;;5000803;28;20034;-67
2022/02/08 10:49:03;;;;;;;0.82;0.47;;;18.20;58.90;;;;;;5016441;28;20025;-67
2022/02/08 10:51:31;;;;;;;1.65;0.38;;;18.20;58.90;;;;;;5033930;28;20025;-67
2022/02/08 10:54:03;;;;;;;0.50;0.30;;;18.20;58.90;;;;;;5033877;28;20022;-67
2022/02/08 10:56:32;;;;;;;2.20;0.50;;;18.20;58.90;;;;;;5016885;28;20096;-67
2022/02/08 10:59:17;;;;;;;0.90;0.30;;;18.20;58.90;;;;;;5033922;28;20104;-67
2022/02/08 11:01:52;;;;;;;0.35;0.30;;;18.20;58.90;;;;;;5018877;28;20036;-67
2022/02/08 11:04:30;;;;;;;0.38;0.30;;;18.20;58.90;;;;;;5017503;28;20026;-67
2022/02/08 11:07:40;;;;;;;0.98;0.35;;;18.20;58.90;;;;;;5017972;28;20159;-67
2022/02/08 11:10:06;;;;;;;1.42;0.50;;;18.20;58.90;;;;;;5031497;28;20025;-67
2022/02/08 11:12:59;;;;;;;0.22;0.20;;;18.10;58.90;;;;;;5002954;28;20018;-67
2022/02/08 11:15:56;;;;;;;1.00;0.55;;;18.10;58.90;;;;;;5019326;28;20515;-67
2022/02/08 11:21:21;;;;;;;0.80;0.55;;;18.10;59.00;;;;;;5016885;28;20057;-67
2022/02/08 11:24:07;;;;;;;0.30;0.22;;;18.20;59.00;;;;;;5017884;28;20025;-67
2022/02/08 11:26:38;;;;;;;1.20;0.40;;;18.10;59.00;;;;;;5018232;28;20034;-67
2022/02/08 11:29:17;;;;;;;0.60;0.30;;;18.10;59.00;;;;;;5016301;28;20025;-67
2022/02/08 11:31:50;;;;;;;0.80;0.47;;;18.10;59.00;;;;;;5033351;28;20492;-67
2022/02/08 11:54:24;;;;;;;0.77;0.30;;;18.10;59.10;;;;;;5012048;28;20459;-67
2022/02/08 11:57:37;;;;;;;1.10;0.47;;;18.00;59.10;;;;;;4995576;28;20086;-67
2022/02/08 12:02:40;;;;;;;0.40;0.32;;;18.00;59.10;;;;;;5031117;28;20096;-67
2022/02/08 12:07:26;;;;;;;0.70;0.50;;;18.00;59.10;;;;;;5030819;28;20460;-67
2022/02/08 13:00:41;;;;;;;1.02;0.50;;;18.10;59.80;;;;;;4971477;28;20123;-67
2022/02/08 14:08:38;;;;;;;0.25;0.20;;;18.00;60.10;;;;;;4954784;29;20047;-68
2022/02/08 14:18:43;;;;;;;0.30;0.30;;;18.00;60.20;;;;;;4935132;29;20035;-67
2022/02/08 14:59:01;;;;;;;0.40;0.40;;;17.90;60.20;;;;;;4993674;28;20522;-67
2022/02/08 15:08:49;;;;;;;0.25;0.25;;;17.90;60.30;;;;;;4994545;28;20030;-68
2022/02/08 15:11:15;;;;;;;0.17;0.10;;;17.90;61.30;;;;;;4994310;28;20019;-67
2022/02/08 15:13:46;;;;;;;0.47;0.35;;;17.90;60.40;;;;;;4993042;28;20042;-67
2022/02/08 15:16:27;;;;;;;0.40;0.30;;;17.90;60.30;;;;;;5027722;28;20041;-67
2022/02/08 15:18:55;;;;;;;0.30;0.30;;;17.90;60.30;;;;;;5018184;28;20104;-67
2022/02/08 15:21:26;;;;;;;0.60;0.25;;;17.90;60.30;;;;;;5033555;28;20028;-67
2022/02/08 15:23:52;;;;;;;0.40;0.20;;;17.90;60.30;;;;;;5032848;28;20029;-67
2022/02/08 15:26:18;;;;;;;0.50;0.30;;;17.90;60.30;;;;;;5015581;28;20100;-67
2022/02/08 15:28:44;;;;;;;0.82;0.30;;;17.90;60.20;;;;;;5015804;28;20025;-67
2022/02/08 15:31:09;;;;;;;1.75;0.30;;;17.90;60.30;;;;;;5015253;28;20057;-68
2022/02/08 15:33:35;;;;;;;0.80;0.30;;;17.90;60.30;;;;;;5033216;28;20104;-68
2022/02/08 15:36:01;;;;;;;0.30;0.30;;;17.90;60.30;;;;;;5033191;28;20021;-67
2022/02/08 15:38:32;;;;;;;0.25;0.25;;;17.90;60.30;;;;;;5033230;28;20037;-68
2022/02/08 15:40:57;;;;;;;0.20;0.20;;;17.90;60.30;;;;;;5016364;28;20025;-68
2022/02/08 15:43:23;;;;;;;0.45;0.40;;;17.90;60.30;;;;;;5032954;28;20025;-67
2022/02/08 15:45:56;;;;;;;0.20;0.20;;;17.90;60.30;;;;;;5015060;28;20037;-68
2022/02/08 15:48:23;;;;;;;0.20;0.20;;;17.90;61.30;;;;;;5033036;28;20021;-67
2022/02/08 15:56:26;;;;;;;1.08;0.20;;;17.90;60.40;;;;;;5018327;28;20048;-67
2022/02/08 16:09:22;;;;;;;0.20;0.20;;;17.90;60.40;;;;;;5032863;28;20025;-67
2022/02/08 16:24:32;;;;;;;0.30;0.30;;;17.90;60.40;;;;;;5011979;28;20384;-67
2022/02/08 16:53:59;;;;;;;0.55;0.43;;;17.80;60.60;;;;;;4971123;28;20551;-67
2022/02/08 16:56:27;;;;;;;0.45;0.45;;;17.90;60.60;;;;;;4970743;28;20617;-68
2022/02/08 16:58:55;;;;;;;0.68;0.40;;;17.80;60.50;;;;;;4971993;28;20615;-68
2022/02/08 17:01:26;;;;;;;0.40;0.40;;;17.90;60.60;;;;;;4990642;28;20026;-67
2022/02/08 17:03:51;;;;;;;0.68;0.32;;;17.80;60.60;;;;;;4981333;28;20390;-67
2022/02/08 17:06:19;;;;;;;0.32;0.32;;;17.80;60.50;;;;;;5005175;28;20120;-67
2022/02/08 17:08:46;;;;;;;0.30;0.30;;;17.90;60.50;;;;;;5013809;28;20017;-68
2022/02/08 17:11:19;;;;;;;1.80;0.50;;;17.90;60.50;;;;;;5014450;28;20021;-67
2022/02/08 17:16:24;;;;;;;0.57;0.47;;;17.80;60.60;;;;;;5031478;28;19917;-67
2022/02/08 17:46:05;;;;;;;0.73;0.68;;;17.90;61.20;;;;;;5015015;28;20038;-78
2022/02/08 17:48:35;;;;;;;1.00;0.90;;;17.90;61.20;;;;;;5014200;28;20013;-68
2022/02/08 17:51:02;;;;;;;1.02;0.90;;;18.00;61.20;;;;;;5026007;28;20768;-75
2022/02/08 17:53:27;;;;;;;1.00;0.90;;;18.00;61.20;;;;;;5011345;28;20422;-78
2022/02/08 17:55:53;;;;;;;3.00;1.00;;;18.00;61.20;;;;;;5013834;28;20091;-74
2022/02/08 17:58:20;;;;;;;1.35;0.77;;;18.00;61.20;;;;;;4996421;28;20041;-75
2022/02/08 18:00:46;;;;;;;2.22;0.80;;;18.00;61.20;;;;;;5022470;28;20553;-74
2022/02/08 18:03:12;;;;;;;1.30;0.82;;;18.10;61.20;;;;;;5023201;28;20103;-79
2022/02/08 18:05:38;;;;;;;1.55;0.82;;;18.10;61.10;;;;;;4996086;28;20057;-75
2022/02/08 18:08:06;;;;;;;1.52;0.80;;;18.10;61.10;;;;;;5029370;28;20025;-76
2022/02/08 18:10:32;;;;;;;1.25;0.93;;;18.20;61.20;;;;;;5000486;28;20488;-77
2022/02/08 18:13:00;;;;;;;1.73;0.77;;;18.10;61.10;;;;;;5016408;28;20091;-78
2022/02/08 18:15:27;;;;;;;0.85;0.85;;;18.20;61.20;;;;;;5016816;28;20516;-77
2022/02/08 18:17:57;;;;;;;1.63;0.80;;;18.20;61.20;;;;;;5016162;28;20534;-77
2022/02/08 18:23:18;;;;;;;0.82;0.80;;;18.30;62.20;;;;;;5034386;28;20407;-77
2022/02/08 18:50:29;;;;;;;1.00;0.80;;;18.30;61.20;;;;;;5016513;28;20034;-77
2022/02/08 18:51:15;;;;;;;1.48;0.80;;;18.50;61.20;;;;;;5033891;28;20033;-74
2022/02/08 19:19:05;;;;;;;1.40;1.30;;;18.60;61.30;;;;;;5015840;28;20491;-71
2022/02/08 19:21:36;;;;;;;1.30;0.95;;;18.60;61.30;;;;;;4995061;28;20429;-72
2022/02/08 19:24:02;;;;;;;4.63;1.35;;;18.60;61.20;;;;;;5032579;28;20025;-75
2022/02/08 19:26:27;;;;;;;3.50;1.30;;;18.60;61.10;;;;;;5015591;28;20025;-75
2022/02/08 19:28:54;;;;;;;1.67;1.02;;;18.70;61.20;;;;;;5015262;28;20014;-74
2022/02/08 19:31:20;;;;;;;2.15;1.40;;;18.70;61.10;;;;;;5015039;28;20022;-73
2022/02/08 19:33:50;;;;;;;1.40;1.30;;;18.70;61.10;;;;;;5032736;28;20026;-75
2022/02/08 19:36:17;;;;;;;2.47;1.52;;;18.70;61.00;;;;;;5014895;28;20028;-74
2022/02/08 19:38:48;;;;;;;2.20;1.60;;;18.70;61.00;;;;;;5014966;28;20030;-74
2022/02/08 19:41:19;;;;;;;1.77;1.35;;;18.80;61.10;;;;;;5015435;28;20064;-73
2022/02/08 19:43:45;;;;;;;1.85;1.30;;;18.80;61.00;;;;;;5015884;28;20557;-74
2022/02/08 19:46:11;;;;;;;1.30;1.20;;;18.80;61.10;;;;;;5014747;28;20053;-75
2022/02/08 19:48:37;;;;;;;1.40;1.25;;;18.80;61.00;;;;;;5032472;28;20052;-75
2022/02/08 19:51:03;;;;;;;1.45;1.35;;;18.80;61.00;;;;;;5015018;28;20067;-74
2022/02/08 19:53:32;;;;;;;1.33;1.20;;;18.90;61.10;;;;;;5014207;28;20018;-74
2022/02/08 19:58:27;;;;;;;1.60;1.48;;;18.90;61.00;;;;;;5032351;28;20069;-74
2022/02/08 20:01:05;;;;;;;2.10;1.90;;;18.90;60.90;;;;;;5032826;28;20037;-74
2022/02/08 20:03:42;;;;;;;1.77;1.50;;;18.90;60.90;;;;;;5016229;28;20083;-73
2022/02/08 20:06:08;;;;;;;3.20;1.40;;;18.90;60.90;;;;;;5031047;28;20060;-82
2022/02/08 20:08:34;;;;;;;1.48;1.23;;;18.90;61.00;;;;;;4995159;28;20465;-78
2022/02/08 20:10:59;;;;;;;2.60;1.45;;;18.90;61.00;;;;;;5013220;28;20026;-78
2022/02/08 20:13:27;;;;;;;1.60;1.42;;;19.00;61.00;;;;;;5031695;28;20021;-84
2022/02/08 20:15:53;;;;;;;2.58;1.45;;;19.00;60.90;;;;;;5011224;28;20049;-84
2022/02/08 20:18:20;;;;;;;1.70;1.50;;;19.00;60.90;;;;;;5011237;28;20381;-86
2022/02/08 20:20:47;;;;;;;1.88;1.70;;;19.00;60.90;;;;;;5010398;28;20384;-80
2022/02/08 20:23:14;;;;;;;1.83;1.50;;;19.00;60.80;;;;;;4994213;28;20475;-80
2022/02/08 20:25:47;;;;;;;2.25;1.52;;;19.00;60.80;;;;;;4996310;28;20475;-81
2022/02/08 20:28:19;;;;;;;;;;;18.90;60.70;;;;;;5011418;28;20014;-82
2022/02/08 20:30:44;;;;;;;1.55;1.30;;;19.00;60.50;;;;;;5012392;28;19906;-82
2022/02/08 20:33:10;;;;;;;2.15;1.40;;;18.90;60.90;;;;;;5010689;28;20029;-80
2022/02/08 20:35:36;;;;;;;1.55;1.45;;;19.00;60.90;;;;;;5011111;28;20522;-79
2022/02/08 20:38:03;;;;;;;2.72;1.52;;;19.00;60.90;;;;;;5012070;28;20097;-80
2022/02/08 20:40:29;;;;;;;1.67;1.58;;;18.90;60.70;;;;;;5001757;28;20057;-74
2022/02/08 20:42:58;;;;;;;1.67;1.40;;;19.00;60.80;;;;;;5005184;28;20049;-74
2022/02/08 20:45:27;;;;;;;2.38;1.70;;;19.00;60.70;;;;;;5007235;28;20486;-77
2022/02/08 20:47:53;;;;;;;2.28;1.90;;;19.00;60.70;;;;;;5008613;28;20036;-65
2022/02/08 20:50:23;;;;;;;1.55;1.38;;;19.00;60.60;;;;;;5010806;28;20022;-65
2022/02/08 20:52:56;;;;;;;2.15;1.30;;;19.00;60.60;;;;;;5011425;28;20022;-66
2022/02/08 20:55:24;;;;;;;1.58;1.48;;;19.00;60.50;;;;;;5011422;28;20025;-67